Time;durP1;ratioP1;P1;durP2;ratioP2;P2;SDS_P1;SDS_P2;PMS_P1;PMS_P2;Temp;Humidity;BMP_temperature;BMP_pressure;BME280_temperature;BME280_humidity;BME280_pressure;Samples;Min_cycle;Max_cycle;Signal;HPM_P1;HPM_P2
2022/09/30 00:01:48;;;;;;;4.57;2.60;;;6.80;99.90;;;;;;5044539;28;20124;-71
2022/09/30 00:04:22;;;;;;;3.75;2.42;;;6.80;99.90;;;;;;5085089;28;20040;-71
2022/09/30 00:06:49;;;;;;;3.63;2.13;;;6.80;99.90;;;;;;5063083;28;20042;-71
2022/09/30 00:09:15;;;;;;;3.63;2.30;;;6.70;99.90;;;;;;5083583;28;20493;-71
2022/09/30 00:11:41;;;;;;;4.40;2.30;;;6.70;99.90;;;;;;5074119;28;20542;-71
2022/09/30 00:14:12;;;;;;;3.50;2.22;;;6.60;99.90;;;;;;5038207;28;20044;-71
2022/09/30 00:16:37;;;;;;;4.22;2.92;;;6.60;99.90;;;;;;5058068;28;20045;-71
2022/09/30 00:19:04;;;;;;;3.20;2.40;;;6.60;99.90;;;;;;5039119;28;20037;-71
2022/09/30 00:21:32;;;;;;;3.80;2.55;;;6.50;99.90;;;;;;5066007;28;20079;-71
2022/09/30 00:23:58;;;;;;;5.28;2.42;;;6.50;99.90;;;;;;5055992;28;20360;-71
2022/09/30 00:26:24;;;;;;;2.78;2.25;;;6.40;99.90;;;;;;5071795;28;20063;-71
2022/09/30 00:28:53;;;;;;;7.60;2.80;;;6.40;99.90;;;;;;5037213;28;20040;-71
2022/09/30 00:31:20;;;;;;;3.60;2.70;;;6.40;99.90;;;;;;5061609;28;20275;-71
2022/09/30 00:34:05;;;;;;;3.65;2.42;;;6.40;99.90;;;;;;5068490;28;20147;-71
2022/09/30 00:36:33;;;;;;;3.78;2.20;;;6.40;99.90;;;;;;5051581;28;20458;-71
2022/09/30 00:38:58;;;;;;;4.50;2.45;;;6.30;99.90;;;;;;5046362;28;20048;-71
2022/09/30 00:41:24;;;;;;;3.17;2.00;;;6.30;99.90;;;;;;5065744;28;20044;-71
2022/09/30 00:43:52;;;;;;;4.88;2.10;;;6.30;99.90;;;;;;5079974;28;20070;-71
2022/09/30 00:46:38;;;;;;;2.78;2.30;;;6.20;99.90;;;;;;5043686;28;20036;-71
2022/09/30 00:49:14;;;;;;;3.55;2.00;;;6.20;99.90;;;;;;5049031;28;20106;-71
2022/09/30 00:51:47;;;;;;;2.38;1.90;;;6.20;99.90;;;;;;5056702;28;20072;-71
2022/09/30 00:54:21;;;;;;;3.50;2.10;;;6.20;99.90;;;;;;5075858;28;20099;-71
2022/09/30 00:56:59;;;;;;;3.17;2.20;;;6.20;99.90;;;;;;5054729;28;20813;-71
2022/09/30 00:59:32;;;;;;;2.58;2.20;;;6.20;99.90;;;;;;5067198;28;20395;-71
2022/09/30 01:01:59;;;;;;;4.35;2.50;;;6.10;99.90;;;;;;5059766;28;20124;-71
2022/09/30 01:04:28;;;;;;;3.58;2.30;;;6.10;99.90;;;;;;5073810;28;20056;-71
2022/09/30 01:06:54;;;;;;;2.00;1.60;;;6.00;99.90;;;;;;5061717;28;20037;-71
2022/09/30 01:09:20;;;;;;;2.60;1.63;;;6.00;99.90;;;;;;5055965;28;20056;-71
2022/09/30 01:11:47;;;;;;;4.07;2.60;;;6.00;99.90;;;;;;5070200;28;20047;-71
2022/09/30 01:14:17;;;;;;;4.03;2.40;;;6.00;99.90;;;;;;5035082;28;20154;-71
2022/09/30 01:17:19;;;;;;;2.85;2.30;;;6.00;99.90;;;;;;5064068;28;20036;-71
2022/09/30 01:20:20;;;;;;;3.00;2.17;;;6.00;99.90;;;;;;4977703;28;20053;-71
2022/09/30 01:23:01;;;;;;;4.20;2.30;;;6.00;99.90;;;;;;5058804;28;20055;-71
2022/09/30 01:26:01;;;;;;;3.50;2.15;;;6.00;99.90;;;;;;5073983;28;20041;-71
2022/09/30 01:28:52;;;;;;;4.07;2.13;;;5.90;99.90;;;;;;5068995;28;20520;-71
2022/09/30 01:31:46;;;;;;;3.40;2.20;;;5.90;99.90;;;;;;5054207;28;20386;-71
2022/09/30 01:34:28;;;;;;;3.47;2.58;;;5.90;99.90;;;;;;5057124;28;20426;-71
2022/09/30 01:37:22;;;;;;;2.95;2.00;;;5.80;99.90;;;;;;5062693;28;20045;-71
2022/09/30 01:40:21;;;;;;;3.20;2.67;;;5.80;99.90;;;;;;5071246;28;20098;-71
2022/09/30 01:43:13;;;;;;;3.28;2.35;;;5.80;99.90;;;;;;5072807;28;20101;-71
2022/09/30 01:45:48;;;;;;;3.55;2.63;;;5.70;99.90;;;;;;5062585;28;20059;-71
2022/09/30 01:48:39;;;;;;;3.75;2.53;;;5.70;99.90;;;;;;5070867;28;20056;-71
2022/09/30 01:51:10;;;;;;;3.97;2.50;;;5.70;99.90;;;;;;5054598;28;20613;-71
2022/09/30 01:53:50;;;;;;;2.92;2.30;;;5.70;99.90;;;;;;5056974;28;20048;-71
2022/09/30 01:56:37;;;;;;;2.88;1.98;;;5.70;99.90;;;;;;5053928;28;20062;-71
2022/09/30 01:59:05;;;;;;;4.22;1.60;;;5.60;99.90;;;;;;5064940;28;20040;-71
2022/09/30 02:01:42;;;;;;;2.92;2.13;;;5.50;99.90;;;;;;5053784;28;20036;-71
2022/09/30 02:04:14;;;;;;;2.47;1.65;;;5.50;99.90;;;;;;5064843;28;20050;-71
2022/09/30 02:06:44;;;;;;;3.33;1.95;;;5.50;99.90;;;;;;5050074;28;20041;-71
2022/09/30 02:09:23;;;;;;;2.25;1.80;;;5.50;99.90;;;;;;5051667;28;20124;-71
2022/09/30 02:11:50;;;;;;;2.60;1.85;;;5.40;99.90;;;;;;5039362;28;20037;-71
2022/09/30 02:14:27;;;;;;;2.10;1.38;;;5.40;99.90;;;;;;5047817;28;20050;-71
2022/09/30 02:17:02;;;;;;;1.77;1.30;;;5.30;99.90;;;;;;5065612;28;20079;-71
2022/09/30 02:19:43;;;;;;;11.05;2.40;;;5.30;99.90;;;;;;5049856;28;20037;-71
2022/09/30 02:22:42;;;;;;;13.68;2.30;;;5.30;99.90;;;;;;5066550;28;20457;-71
2022/09/30 02:25:14;;;;;;;11.57;2.20;;;5.50;99.90;;;;;;5069367;28;20044;-71
2022/09/30 02:27:44;;;;;;;8.18;2.47;;;5.70;99.90;;;;;;5061629;28;20094;-71
2022/09/30 02:30:11;;;;;;;2.97;1.70;;;5.80;99.90;;;;;;5053843;28;20048;-71
2022/09/30 02:32:46;;;;;;;14.70;2.95;;;5.90;99.90;;;;;;5070124;28;20124;-71
2022/09/30 02:35:34;;;;;;;9.57;2.97;;;5.90;99.90;;;;;;5045888;28;20055;-71
2022/09/30 02:38:04;;;;;;;7.53;2.33;;;5.90;99.90;;;;;;5070710;28;20047;-71
2022/09/30 02:40:35;;;;;;;26.90;3.50;;;5.90;99.90;;;;;;5051386;28;20044;-71
2022/09/30 02:43:03;;;;;;;16.77;3.00;;;6.00;99.90;;;;;;5081532;28;20044;-71
2022/09/30 02:45:38;;;;;;;14.43;3.13;;;6.00;99.90;;;;;;5049545;28;20041;-71
2022/09/30 02:48:24;;;;;;;19.80;2.75;;;6.00;99.90;;;;;;5060054;28;20108;-71
2022/09/30 02:51:32;;;;;;;8.90;2.55;;;6.00;99.90;;;;;;5075584;28;20055;-71
2022/09/30 02:54:23;;;;;;;8.88;2.30;;;5.90;99.90;;;;;;5025746;28;20060;-71
2022/09/30 02:56:57;;;;;;;28.02;3.15;;;5.90;99.90;;;;;;5039496;28;20048;-71
2022/09/30 02:59:25;;;;;;;30.63;3.58;;;5.90;99.90;;;;;;5067783;28;20039;-71
2022/09/30 03:01:51;;;;;;;13.95;2.15;;;5.90;99.90;;;;;;5069602;28;20067;-71
2022/09/30 03:04:30;;;;;;;16.43;2.50;;;5.90;99.90;;;;;;5053134;28;20079;-71
2022/09/30 03:06:56;;;;;;;12.77;2.30;;;5.90;99.90;;;;;;5049061;28;20044;-71
2022/09/30 03:09:26;;;;;;;13.32;2.63;;;5.80;99.90;;;;;;5051129;28;20040;-71
2022/09/30 03:12:00;;;;;;;8.77;1.67;;;5.80;99.90;;;;;;5050701;28;20567;-71
2022/09/30 03:14:53;;;;;;;56.10;6.43;;;5.70;99.90;;;;;;5060992;28;20052;-71
2022/09/30 03:17:28;;;;;;;6.25;1.88;;;5.70;99.90;;;;;;5067634;28;20036;-71
2022/09/30 03:20:14;;;;;;;;;;;5.60;99.90;;;;;;5052451;28;20039;-71
2022/09/30 03:22:52;;;;;;;15.30;2.13;;;5.50;99.90;;;;;;5085445;28;19928;-71
2022/09/30 03:25:44;;;;;;;5.55;1.52;;;5.40;99.90;;;;;;5078951;28;20047;-71
2022/09/30 03:28:29;;;;;;;23.48;2.95;;;5.30;99.90;;;;;;5070986;28;20408;-71
2022/09/30 03:31:14;;;;;;;;;;;5.20;99.90;;;;;;5068898;28;20143;-71
2022/09/30 03:34:17;;;;;;;1.60;1.20;;;5.10;99.90;;;;;;5073930;28;19920;-71
2022/09/30 03:37:10;;;;;;;2.85;1.40;;;5.10;99.90;;;;;;5072222;28;20093;-71
2022/09/30 03:39:39;;;;;;;1.88;1.33;;;5.00;99.90;;;;;;5056534;28;20416;-71
2022/09/30 03:42:13;;;;;;;2.70;1.40;;;5.00;99.90;;;;;;5069897;28;20051;-71
2022/09/30 03:45:04;;;;;;;4.30;1.63;;;4.90;99.90;;;;;;5080075;28;20049;-71
2022/09/30 03:47:34;;;;;;;1.52;1.20;;;4.90;99.90;;;;;;5065954;28;20079;-71
2022/09/30 03:50:05;;;;;;;2.60;1.40;;;4.80;99.90;;;;;;5066449;28;20317;-71
2022/09/30 03:52:32;;;;;;;4.13;1.63;;;4.80;99.90;;;;;;5073095;28;20067;-71
2022/09/30 03:55:01;;;;;;;35.97;3.38;;;4.70;99.90;;;;;;5042340;28;20528;-71
2022/09/30 03:57:29;;;;;;;12.20;2.53;;;4.70;99.90;;;;;;5072154;28;20041;-71
2022/09/30 03:59:58;;;;;;;38.90;3.50;;;4.70;99.90;;;;;;5035157;28;20054;-71
2022/09/30 04:02:26;;;;;;;73.90;6.05;;;4.70;99.90;;;;;;5081020;28;20040;-71
2022/09/30 04:04:52;;;;;;;65.07;5.50;;;4.70;99.90;;;;;;5062666;28;20507;-71
2022/09/30 04:07:18;;;;;;;105.53;7.38;;;4.70;99.90;;;;;;5042689;28;20040;-71
2022/09/30 04:09:44;;;;;;;75.00;5.85;;;4.70;99.90;;;;;;5072651;28;20048;-71
2022/09/30 04:12:09;;;;;;;30.17;2.60;;;4.70;99.90;;;;;;5061991;28;20033;-71
2022/09/30 04:14:35;;;;;;;6.33;1.60;;;4.80;99.90;;;;;;5042450;28;20088;-71
2022/09/30 04:17:03;;;;;;;77.80;5.50;;;4.80;99.90;;;;;;5054871;28;20036;-71
2022/09/30 04:19:29;;;;;;;102.20;7.25;;;4.80;99.90;;;;;;5053586;28;20128;-71
2022/09/30 04:21:55;;;;;;;79.00;5.45;;;4.80;99.90;;;;;;5068670;28;20036;-71
2022/09/30 04:24:22;;;;;;;55.63;4.80;;;4.80;99.90;;;;;;5053114;28;20052;-71
2022/09/30 04:26:48;;;;;;;14.75;2.00;;;4.80;99.90;;;;;;5068766;28;20318;-71
2022/09/30 04:29:14;;;;;;;10.77;2.27;;;4.80;99.90;;;;;;5073979;28;20476;-71
2022/09/30 04:31:40;;;;;;;26.08;3.72;;;4.80;99.90;;;;;;5053309;28;20481;-71
2022/09/30 04:34:05;;;;;;;7.50;2.35;;;4.80;99.90;;;;;;5063556;28;20471;-71
2022/09/30 04:36:31;;;;;;;8.03;2.10;;;4.80;99.90;;;;;;5041472;28;20072;-71
2022/09/30 04:38:57;;;;;;;19.50;2.90;;;4.70;99.90;;;;;;5018134;28;20147;-71
2022/09/30 04:41:23;;;;;;;4.53;1.93;;;4.70;99.90;;;;;;5053558;28;20060;-71
2022/09/30 04:43:49;;;;;;;2.70;1.40;;;4.70;99.90;;;;;;5045207;28;20061;-71
2022/09/30 04:46:17;;;;;;;1.77;1.40;;;4.60;99.90;;;;;;5052313;28;20043;-71
2022/09/30 04:48:46;;;;;;;2.13;1.55;;;4.60;99.90;;;;;;5042475;28;20405;-71
2022/09/30 04:51:13;;;;;;;2.35;1.75;;;4.60;99.90;;;;;;5043004;28;20091;-71
2022/09/30 04:53:39;;;;;;;2.50;1.70;;;4.60;99.90;;;;;;5035411;28;20552;-71
2022/09/30 04:56:06;;;;;;;13.05;2.75;;;4.50;99.90;;;;;;5049190;28;20131;-71
2022/09/30 04:58:32;;;;;;;3.45;2.00;;;4.50;99.90;;;;;;5060901;28;20041;-71
2022/09/30 05:01:06;;;;;;;3.78;1.98;;;4.50;99.90;;;;;;5053646;28;20029;-71
2022/09/30 05:03:33;;;;;;;3.10;2.00;;;4.50;99.90;;;;;;5036063;28;20044;-71
2022/09/30 05:05:59;;;;;;;3.72;2.10;;;4.50;99.90;;;;;;5069794;28;20179;-71
2022/09/30 05:08:25;;;;;;;4.10;2.10;;;4.50;99.90;;;;;;5039012;28;20104;-71
2022/09/30 05:10:59;;;;;;;6.57;2.10;;;4.50;99.90;;;;;;5067623;28;20123;-71
2022/09/30 05:13:29;;;;;;;18.73;3.28;;;4.50;99.90;;;;;;5052615;28;20041;-71
2022/09/30 05:15:55;;;;;;;4.18;2.53;;;4.50;99.90;;;;;;5038667;28;20119;-71
2022/09/30 05:18:21;;;;;;;4.67;2.63;;;4.60;99.90;;;;;;5055485;28;20206;-71
2022/09/30 05:20:50;;;;;;;3.67;2.85;;;4.60;99.90;;;;;;5054045;28;20043;-71
2022/09/30 05:23:18;;;;;;;3.65;2.78;;;4.60;99.90;;;;;;5054455;28;20068;-71
2022/09/30 05:25:44;;;;;;;4.28;3.45;;;4.60;99.90;;;;;;5075611;28;20496;-71
2022/09/30 05:28:11;;;;;;;5.55;3.58;;;4.70;99.90;;;;;;5077350;28;20476;-70
2022/09/30 05:30:37;;;;;;;5.32;3.90;;;4.70;99.90;;;;;;5055182;28;20044;-70
2022/09/30 05:33:03;;;;;;;5.82;2.83;;;4.70;99.90;;;;;;5066907;28;20434;-70
2022/09/30 05:35:28;;;;;;;5.23;2.90;;;4.70;99.90;;;;;;5069761;28;20405;-70
2022/09/30 05:37:54;;;;;;;3.73;2.73;;;4.70;99.90;;;;;;5054954;28;20032;-70
2022/09/30 05:40:20;;;;;;;4.83;2.60;;;4.60;99.90;;;;;;5070392;28;20094;-70
2022/09/30 05:42:46;;;;;;;3.43;2.50;;;4.60;99.90;;;;;;5049952;28;20448;-71
2022/09/30 05:45:12;;;;;;;4.30;2.60;;;4.60;99.90;;;;;;5070365;28;20048;-71
2022/09/30 05:47:38;;;;;;;3.33;2.40;;;4.60;99.90;;;;;;5054490;28;20503;-71
2022/09/30 05:50:04;;;;;;;6.28;3.03;;;4.60;99.90;;;;;;5038190;28;20528;-71
2022/09/30 05:52:30;;;;;;;3.90;2.85;;;4.60;99.90;;;;;;5046801;28;20094;-71
2022/09/30 05:54:59;;;;;;;60.33;7.13;;;4.60;99.90;;;;;;5064036;28;20093;-71
2022/09/30 05:57:27;;;;;;;5.25;2.97;;;4.70;99.90;;;;;;5030012;28;20052;-71
2022/09/30 05:59:53;;;;;;;6.55;2.88;;;4.80;99.90;;;;;;5054260;28;20032;-71
2022/09/30 06:02:19;;;;;;;6.65;2.83;;;4.80;99.90;;;;;;5076127;28;20047;-71
2022/09/30 06:04:45;;;;;;;4.10;2.70;;;4.80;99.90;;;;;;5059879;28;20057;-71
2022/09/30 06:07:12;;;;;;;4.37;3.10;;;4.90;99.90;;;;;;5028117;28;20098;-71
2022/09/30 06:09:38;;;;;;;5.60;3.40;;;4.90;99.90;;;;;;5047857;28;20127;-71
2022/09/30 06:12:05;;;;;;;5.93;3.58;;;5.00;99.90;;;;;;5047952;28;20076;-71
2022/09/30 06:14:31;;;;;;;7.05;4.78;;;5.10;99.90;;;;;;5039806;28;20032;-71
2022/09/30 06:16:59;;;;;;;7.65;4.57;;;5.20;99.90;;;;;;5073336;28;20710;-71
2022/09/30 06:19:29;;;;;;;7.68;4.70;;;5.30;99.90;;;;;;5070508;28;20040;-71
2022/09/30 06:21:55;;;;;;;6.82;4.68;;;5.50;99.90;;;;;;5054796;28;20090;-71
2022/09/30 06:24:21;;;;;;;7.18;4.78;;;5.60;99.90;;;;;;5063298;28;20546;-71
2022/09/30 06:26:47;;;;;;;12.90;5.93;;;5.60;99.90;;;;;;5052453;28;20052;-71
2022/09/30 06:29:13;;;;;;;11.63;7.23;;;5.70;99.90;;;;;;5064077;28;20049;-71
2022/09/30 06:31:39;;;;;;;11.37;6.20;;;5.80;99.90;;;;;;5065438;28;20051;-71
2022/09/30 06:34:05;;;;;;;13.60;7.97;;;5.90;99.90;;;;;;5088570;28;20048;-71
2022/09/30 06:36:34;;;;;;;14.40;7.82;;;6.00;99.90;;;;;;5073010;28;20036;-71
2022/09/30 06:39:00;;;;;;;12.57;8.27;;;6.20;99.90;;;;;;5037479;28;20407;-71
2022/09/30 06:41:27;;;;;;;14.93;9.00;;;6.30;99.90;;;;;;5069686;28;20036;-71
2022/09/30 06:43:54;;;;;;;16.20;8.88;;;6.50;99.90;;;;;;5053559;28;20127;-71
2022/09/30 06:46:22;;;;;;;15.13;8.60;;;6.60;99.90;;;;;;5068858;28;20037;-71
2022/09/30 06:48:51;;;;;;;15.23;8.63;;;6.70;99.90;;;;;;5034686;28;20073;-71
2022/09/30 06:51:19;;;;;;;15.65;8.93;;;6.80;99.90;;;;;;5036265;28;20041;-72
2022/09/30 06:53:49;;;;;;;15.02;8.82;;;6.90;99.90;;;;;;5050450;28;20106;-70
2022/09/30 06:56:16;;;;;;;15.15;9.15;;;7.00;99.90;;;;;;5059278;28;20056;-70
2022/09/30 06:58:44;;;;;;;13.63;8.40;;;7.10;99.90;;;;;;5009160;28;20132;-70
2022/09/30 07:01:13;;;;;;;17.80;9.43;;;7.20;99.90;;;;;;5067678;28;20670;-71
2022/09/30 07:03:39;;;;;;;14.90;9.02;;;7.30;99.90;;;;;;5045923;28;20068;-71
2022/09/30 07:06:05;;;;;;;13.55;8.45;;;7.40;99.90;;;;;;5071857;28;20048;-71
2022/09/30 07:08:34;;;;;;;9.80;7.32;;;7.50;99.90;;;;;;5071701;28;20039;-71
2022/09/30 07:11:13;;;;;;;18.75;8.02;;;7.60;99.90;;;;;;5070294;28;20032;-69
2022/09/30 07:13:41;;;;;;;12.02;7.63;;;7.60;99.90;;;;;;5067328;28;20475;-70
2022/09/30 07:16:09;;;;;;;17.00;7.88;;;7.70;99.90;;;;;;5025944;28;20464;-70
2022/09/30 07:18:35;;;;;;;22.27;8.75;;;7.80;99.90;;;;;;5079739;28;20048;-70
2022/09/30 07:21:01;;;;;;;11.98;6.60;;;7.90;99.90;;;;;;5057919;28;20146;-70
2022/09/30 07:23:32;;;;;;;13.85;7.47;;;8.00;99.90;;;;;;5055587;28;20050;-70
2022/09/30 07:26:03;;;;;;;9.10;6.57;;;8.00;99.90;;;;;;5068464;28;20044;-70
2022/09/30 07:28:33;;;;;;;10.73;6.50;;;8.10;99.90;;;;;;5050617;28;20063;-71
2022/09/30 07:31:05;;;;;;;7.53;5.53;;;8.20;99.90;;;;;;5066458;28;20055;-71
2022/09/30 07:33:32;;;;;;;5.65;5.03;;;8.20;99.90;;;;;;5052846;28;20051;-71
2022/09/30 07:36:00;;;;;;;8.57;5.70;;;8.30;99.90;;;;;;5052825;28;20083;-71
2022/09/30 07:38:31;;;;;;;6.93;5.55;;;8.40;99.90;;;;;;5078205;28;20074;-71
2022/09/30 07:41:01;;;;;;;7.30;5.97;;;8.40;99.90;;;;;;5045629;28;20040;-71
2022/09/30 07:43:39;;;;;;;7.10;6.00;;;8.50;99.90;;;;;;5056659;28;20064;-71
2022/09/30 07:46:12;;;;;;;7.20;6.10;;;8.70;99.90;;;;;;5075527;28;20260;-71
2022/09/30 07:48:43;;;;;;;7.93;6.15;;;8.80;99.90;;;;;;5052786;28;20044;-70
2022/09/30 07:51:16;;;;;;;6.78;6.03;;;8.90;99.90;;;;;;5065626;28;20040;-70
2022/09/30 07:53:44;;;;;;;7.57;6.00;;;9.10;99.90;;;;;;5054104;28;20410;-72
2022/09/30 07:56:11;;;;;;;7.70;5.97;;;9.10;99.90;;;;;;5053757;28;20041;-70
2022/09/30 07:58:37;;;;;;;8.25;6.63;;;9.30;99.90;;;;;;5063655;28;20048;-70
2022/09/30 08:01:05;;;;;;;9.07;6.47;;;9.40;99.90;;;;;;5057775;28;20037;-70
2022/09/30 08:03:33;;;;;;;8.48;6.68;;;9.60;99.90;;;;;;5052557;28;20045;-70
2022/09/30 08:06:10;;;;;;;7.45;6.20;;;9.70;99.90;;;;;;5042809;28;20524;-71
2022/09/30 08:08:36;;;;;;;10.45;7.35;;;9.80;99.90;;;;;;5062155;28;20133;-70
2022/09/30 08:11:04;;;;;;;8.25;6.90;;;10.00;99.90;;;;;;5063690;28;20049;-70
2022/09/30 08:13:30;;;;;;;8.73;6.70;;;10.10;99.90;;;;;;5050454;28;20040;-70
2022/09/30 08:15:56;;;;;;;9.80;7.43;;;10.20;99.90;;;;;;5031370;28;20048;-70
2022/09/30 08:18:22;;;;;;;9.83;7.30;;;10.30;99.90;;;;;;5050755;28;20090;-71
2022/09/30 08:20:48;;;;;;;9.03;7.60;;;10.50;99.90;;;;;;5052179;28;20165;-70
2022/09/30 08:23:15;;;;;;;9.60;7.15;;;10.60;99.90;;;;;;5051380;28;20363;-71
2022/09/30 08:25:42;;;;;;;10.30;7.28;;;10.70;99.90;;;;;;5084440;28;20037;-70
2022/09/30 08:28:08;;;;;;;10.70;7.90;;;10.80;99.90;;;;;;5041655;28;20048;-71
2022/09/30 08:30:35;;;;;;;11.80;8.10;;;11.00;99.90;;;;;;5030360;28;20039;-71
2022/09/30 08:33:01;;;;;;;13.23;7.97;;;11.10;99.90;;;;;;5052367;28;20072;-71
2022/09/30 08:35:28;;;;;;;10.97;7.23;;;11.20;99.90;;;;;;5080791;28;20313;-70
2022/09/30 08:37:54;;;;;;;10.57;7.25;;;11.30;99.90;;;;;;5035014;28;20045;-70
2022/09/30 08:40:30;;;;;;;8.90;7.27;;;11.40;99.90;;;;;;5053487;28;20404;-71
2022/09/30 08:43:23;;;;;;;9.20;7.53;;;11.50;99.90;;;;;;5068913;28;20361;-71
2022/09/30 08:46:07;;;;;;;12.07;7.47;;;11.60;99.90;;;;;;5057568;28;20275;-71
2022/09/30 08:48:51;;;;;;;10.83;7.77;;;11.70;99.90;;;;;;5053384;28;20282;-71
2022/09/30 08:51:35;;;;;;;7.87;6.80;;;11.80;99.90;;;;;;5070875;28;20279;-71
2022/09/30 08:54:05;;;;;;;8.73;7.37;;;11.90;99.90;;;;;;5057051;28;20286;-71
2022/09/30 08:56:33;;;;;;;11.70;7.80;;;12.00;99.90;;;;;;5058356;28;20362;-71
2022/09/30 08:59:23;;;;;;;9.03;7.67;;;12.10;99.90;;;;;;5033833;28;20431;-70
2022/09/30 09:01:54;;;;;;;9.87;7.87;;;12.30;99.90;;;;;;5043981;28;20278;-71
2022/09/30 09:04:19;;;;;;;9.40;7.63;;;12.40;99.90;;;;;;5064700;28;20283;-71
2022/09/30 09:06:53;;;;;;;8.53;7.63;;;12.50;99.90;;;;;;5053196;28;20340;-71
2022/09/30 09:09:50;;;;;;;10.60;8.00;;;12.60;99.90;;;;;;5061965;28;20060;-71
2022/09/30 09:12:39;;;;;;;9.50;7.47;;;12.80;99.90;;;;;;5042418;28;20291;-71
2022/09/30 09:15:53;;;;;;;6.57;5.87;;;12.80;99.90;;;;;;5060448;28;20294;-71
2022/09/30 09:18:27;;;;;;;8.80;6.57;;;12.90;99.90;;;;;;5001602;28;20311;-69
2022/09/30 09:21:27;;;;;;;6.88;4.90;;;13.00;99.90;;;;;;5056908;28;20298;-70
2022/09/30 09:23:56;;;;;;;7.40;4.80;;;13.20;99.90;;;;;;5043727;28;20048;-70
2022/09/30 09:26:24;;;;;;;4.80;3.83;;;13.30;99.90;;;;;;5054020;28;20674;-70
2022/09/30 09:29:06;;;;;;;5.77;4.10;;;13.40;99.90;;;;;;5053875;28;21155;-70
2022/09/30 09:31:32;;;;;;;5.67;4.03;;;13.50;99.90;;;;;;5070322;28;20310;-70
2022/09/30 09:34:09;;;;;;;6.87;4.10;;;13.50;99.90;;;;;;5045009;28;20310;-70
2022/09/30 09:36:53;;;;;;;5.30;4.03;;;13.70;99.90;;;;;;5055244;28;20071;-70
2022/09/30 09:39:39;;;;;;;5.33;4.20;;;13.80;99.90;;;;;;5072512;28;20286;-70
2022/09/30 09:42:11;;;;;;;6.83;4.90;;;13.90;99.90;;;;;;5071604;28;20687;-70
2022/09/30 09:45:01;;;;;;;9.37;4.77;;;14.10;99.90;;;;;;5069823;28;20283;-70
2022/09/30 09:47:27;;;;;;;5.77;4.23;;;14.20;99.90;;;;;;5051017;28;20283;-70
2022/09/30 09:49:56;;;;;;;3.63;2.80;;;14.20;99.20;;;;;;5050437;28;20646;-70
2022/09/30 09:52:59;;;;;;;6.63;3.10;;;14.30;97.80;;;;;;5047888;28;20052;-70
2022/09/30 09:55:25;;;;;;;4.47;2.80;;;14.30;96.30;;;;;;5061559;28;20282;-70
2022/09/30 09:58:12;;;;;;;4.53;2.33;;;14.30;95.00;;;;;;5051479;28;20371;-70
2022/09/30 10:03:11;;;;;;;2.90;2.40;;;14.40;94.20;;;;;;5058809;28;20767;-70
2022/09/30 10:05:40;;;;;;;4.17;2.90;;;14.50;93.50;;;;;;5070551;28;20275;-70
2022/09/30 10:08:21;;;;;;;3.90;2.53;;;14.60;93.00;;;;;;5053887;28;20706;-70
2022/09/30 10:10:56;;;;;;;3.67;2.47;;;14.70;91.30;;;;;;5051588;28;20344;-70
2022/09/30 10:13:25;;;;;;;4.57;3.23;;;14.70;91.00;;;;;;5053138;28;20763;-70
2022/09/30 10:15:53;;;;;;;5.03;3.50;;;14.80;89.10;;;;;;5053227;28;20055;-70
2022/09/30 10:18:28;;;;;;;5.10;3.73;;;14.90;88.90;;;;;;5064351;28;20691;-70
2022/09/30 10:21:06;;;;;;;5.80;3.65;;;14.90;88.10;;;;;;5058466;28;20838;-71
2022/09/30 10:23:37;;;;;;;4.97;2.50;;;15.00;88.10;;;;;;5068654;28;20092;-71
2022/09/30 10:26:13;;;;;;;4.30;2.37;;;15.20;89.00;;;;;;5054102;28;20275;-70
2022/09/30 10:28:50;;;;;;;3.27;2.47;;;15.20;88.00;;;;;;5052134;28;20825;-70
2022/09/30 10:31:36;;;;;;;16.63;2.70;;;15.30;85.90;;;;;;5064572;28;20301;-70
2022/09/30 10:34:15;;;;;;;3.20;1.23;;;15.40;85.60;;;;;;5054330;28;20341;-70
2022/09/30 10:36:43;;;;;;;1.47;0.97;;;15.40;84.00;;;;;;5062376;28;20323;-70
2022/09/30 10:39:29;;;;;;;2.30;1.20;;;15.40;83.00;;;;;;5049352;28;20294;-70
2022/09/30 10:42:08;;;;;;;1.93;1.37;;;15.40;82.20;;;;;;5075153;28;20765;-70
2022/09/30 10:44:47;;;;;;;2.23;1.30;;;15.40;82.00;;;;;;5062663;28;20128;-71
2022/09/30 10:47:18;;;;;;;1.90;1.27;;;15.50;82.20;;;;;;5051153;28;20289;-71
2022/09/30 10:49:49;;;;;;;2.40;1.10;;;15.50;81.80;;;;;;5055554;28;20275;-71
2022/09/30 10:52:19;;;;;;;2.17;1.43;;;15.60;81.20;;;;;;5070734;28;20285;-71
2022/09/30 10:54:56;;;;;;;3.47;1.20;;;15.70;81.60;;;;;;5055614;28;20290;-71
2022/09/30 10:57:28;;;;;;;0.50;0.40;;;15.70;81.70;;;;;;5070003;28;20338;-71
2022/09/30 11:00:11;;;;;;;1.13;0.60;;;15.70;79.80;;;;;;5058445;28;20372;-71
2022/09/30 11:02:46;;;;;;;1.23;0.70;;;15.80;80.40;;;;;;5059317;28;20796;-71
2022/09/30 11:05:23;;;;;;;1.80;0.80;;;15.70;76.50;;;;;;5068049;28;20279;-71
2022/09/30 11:08:14;;;;;;;2.97;1.67;;;15.70;78.20;;;;;;5055338;28;20284;-71
2022/09/30 11:11:09;;;;;;;1.63;0.93;;;15.80;78.90;;;;;;5053675;28;20374;-71
2022/09/30 11:13:49;;;;;;;1.90;1.10;;;15.70;77.90;;;;;;5054774;28;20299;-71
2022/09/30 11:16:34;;;;;;;2.30;0.77;;;15.80;78.40;;;;;;5049433;28;20274;-71
2022/09/30 11:19:15;;;;;;;1.27;0.80;;;15.80;77.40;;;;;;5053175;28;20318;-71
2022/09/30 11:21:59;;;;;;;1.33;0.70;;;15.90;78.60;;;;;;5058170;28;20361;-71
2022/09/30 11:24:45;;;;;;;1.33;0.70;;;16.00;77.80;;;;;;5066606;28;20313;-71
2022/09/30 11:27:38;;;;;;;2.57;0.70;;;15.90;72.20;;;;;;5052620;28;20374;-71
2022/09/30 11:30:29;;;;;;;1.40;0.80;;;15.90;75.50;;;;;;5080692;28;20295;-71
2022/09/30 11:33:01;;;;;;;0.87;0.43;;;16.00;76.50;;;;;;5054246;28;20274;-71
2022/09/30 11:35:45;;;;;;;1.47;0.40;;;16.10;75.40;;;;;;5083589;28;20309;-71
2022/09/30 11:38:56;;;;;;;0.63;0.33;;;16.20;74.30;;;;;;5073152;28;20303;-70
2022/09/30 11:41:28;;;;;;;1.13;0.20;;;16.20;74.50;;;;;;5057234;28;20284;-70
2022/09/30 11:44:11;;;;;;;1.23;0.33;;;16.30;75.10;;;;;;5077255;28;20634;-70
2022/09/30 11:47:16;;;;;;;1.63;0.40;;;16.40;74.60;;;;;;5070079;28;20282;-70
2022/09/30 11:49:55;;;;;;;1.17;0.40;;;16.40;73.70;;;;;;5040785;28;20330;-71
2022/09/30 11:52:49;;;;;;;1.20;0.30;;;16.40;73.60;;;;;;5070787;28;20286;-71
2022/09/30 11:55:21;;;;;;;1.53;0.40;;;16.40;71.20;;;;;;5072000;28;20282;-70
2022/09/30 11:58:12;;;;;;;1.23;0.50;;;16.40;73.20;;;;;;5075456;28;20302;-70
2022/09/30 12:00:42;;;;;;;1.97;0.60;;;16.50;74.00;;;;;;5064296;28;20290;-70
2022/09/30 12:03:17;;;;;;;3.20;0.60;;;16.50;74.40;;;;;;5048596;28;20724;-71
2022/09/30 12:05:52;;;;;;;0.98;0.60;;;16.50;75.20;;;;;;5085787;28;20843;-70
2022/09/30 12:08:30;;;;;;;2.27;0.80;;;16.50;74.70;;;;;;5056643;28;20055;-70
2022/09/30 12:11:09;;;;;;;1.70;0.93;;;16.60;74.80;;;;;;5085432;28;20287;-71
2022/09/30 12:13:50;;;;;;;1.23;0.80;;;16.60;74.40;;;;;;5077269;28;20939;-70
2022/09/30 12:16:20;;;;;;;1.77;0.90;;;16.70;75.00;;;;;;5063847;28;20283;-71
2022/09/30 12:18:55;;;;;;;2.30;0.70;;;16.80;74.70;;;;;;5069095;28;20309;-70
2022/09/30 12:21:48;;;;;;;3.63;0.93;;;16.80;73.40;;;;;;5066639;28;20344;-70
2022/09/30 12:24:23;;;;;;;2.33;0.70;;;16.90;73.00;;;;;;5095179;28;20050;-70
2022/09/30 12:26:49;;;;;;;;;;;16.80;71.90;;;;;;5079118;28;20314;-70
2022/09/30 12:32:18;;;;;;;1.47;0.50;;;16.80;73.10;;;;;;5085541;28;20318;-70
2022/09/30 12:34:51;;;;;;;1.47;0.40;;;16.80;73.20;;;;;;5084985;28;20313;-70
2022/09/30 12:37:51;;;;;;;1.40;0.40;;;16.90;72.30;;;;;;5045964;28;20318;-70
2022/09/30 12:40:47;;;;;;;1.83;0.53;;;17.00;70.90;;;;;;5068363;28;20291;-70
2022/09/30 12:43:46;;;;;;;1.40;0.40;;;17.00;71.10;;;;;;5055366;28;20283;-70
2022/09/30 12:46:30;;;;;;;2.80;0.30;;;17.00;69.20;;;;;;5041882;28;20279;-70
2022/09/30 12:49:05;;;;;;;1.58;0.68;;;17.00;70.80;;;;;;5074794;28;20360;-70
2022/09/30 12:51:32;;;;;;;1.38;0.47;;;16.90;70.20;;;;;;5086447;28;20405;-70
2022/09/30 12:54:20;;;;;;;0.90;0.40;;;16.90;70.50;;;;;;5057371;28;20490;-70
2022/09/30 12:56:53;;;;;;;1.23;0.30;;;16.90;68.10;;;;;;5084935;28;20286;-70
2022/09/30 12:59:27;;;;;;;4.83;0.80;;;16.90;68.10;;;;;;5056550;28;20295;-70
2022/09/30 13:01:53;;;;;;;1.23;0.60;;;16.90;68.10;;;;;;5056255;28;20293;-70
2022/09/30 13:04:41;;;;;;;2.17;0.70;;;17.00;69.00;;;;;;5084600;28;20433;-70
2022/09/30 13:07:12;;;;;;;2.40;0.70;;;17.00;66.60;;;;;;5062085;28;20291;-70
2022/09/30 13:10:21;;;;;;;2.13;0.80;;;17.00;68.40;;;;;;5085168;28;20734;-70
2022/09/30 13:13:08;;;;;;;1.83;0.70;;;17.10;67.30;;;;;;5024845;28;20309;-70
2022/09/30 13:15:35;;;;;;;1.57;0.50;;;17.10;67.40;;;;;;5086979;28;20285;-70
2022/09/30 13:18:19;;;;;;;1.10;0.63;;;17.20;68.30;;;;;;5082083;28;20325;-70
2022/09/30 13:20:56;;;;;;;1.20;0.57;;;17.30;67.90;;;;;;5066403;28;20382;-70
2022/09/30 13:23:38;;;;;;;3.43;0.90;;;17.30;68.00;;;;;;5050964;28;20310;-70
2022/09/30 13:26:30;;;;;;;1.77;0.83;;;17.30;65.20;;;;;;5080990;28;20321;-70
2022/09/30 13:28:59;;;;;;;2.17;1.17;;;17.20;65.20;;;;;;5022999;28;20335;-70
2022/09/30 13:31:30;;;;;;;3.87;0.90;;;17.20;65.80;;;;;;5017423;28;20367;-70
2022/09/30 13:34:05;;;;;;;1.27;0.73;;;17.20;65.70;;;;;;5005511;28;20696;-70